createdAt,value
2022-12-12T00:00:34.857Z,1.91
2022-12-12T00:01:33.046Z,1.83
2022-12-12T00:02:29.721Z,1.89
2022-12-12T00:03:26.470Z,1.88
2022-12-12T00:04:23.145Z,1.73
2022-12-12T00:05:19.911Z,1.74
2022-12-12T00:06:16.625Z,1.71
2022-12-12T00:07:13.202Z,1.59
2022-12-12T00:08:09.802Z,1.60
2022-12-12T00:09:06.510Z,1.72
2022-12-12T00:10:04.639Z,1.86
2022-12-12T00:11:01.405Z,1.81
2022-12-12T00:11:58.128Z,1.57
2022-12-12T00:12:54.956Z,1.63
2022-12-12T00:13:53.086Z,1.61
2022-12-12T00:14:49.782Z,1.45
2022-12-12T00:15:46.436Z,1.80
2022-12-12T00:16:43.059Z,1.84
2022-12-12T00:17:39.664Z,1.76
2022-12-12T00:18:37.077Z,1.97
2022-12-12T00:19:33.724Z,1.82
2022-12-12T00:20:30.441Z,1.89
2022-12-12T00:21:29.272Z,1.85
2022-12-12T00:22:25.919Z,1.88
2022-12-12T00:23:24.450Z,1.83
2022-12-12T00:24:21.077Z,2.03
2022-12-12T00:25:17.726Z,1.88
2022-12-12T00:26:23.600Z,1.82
2022-12-12T00:27:20.235Z,1.84
2022-12-12T00:28:16.838Z,1.87
2022-12-12T00:29:13.597Z,2.05
2022-12-12T00:30:10.526Z,1.72
2022-12-12T00:31:07.192Z,1.92
2022-12-12T00:32:04.021Z,2.25
2022-12-12T00:33:00.587Z,1.93
2022-12-12T00:33:57.335Z,1.78
2022-12-12T00:34:53.964Z,2.05
2022-12-12T00:35:52.890Z,1.77
2022-12-12T00:36:51.634Z,1.24
2022-12-12T00:37:48.273Z,1.41
2022-12-12T00:38:44.876Z,1.29
2022-12-12T00:39:41.904Z,1.36
2022-12-12T00:40:38.513Z,1.30
2022-12-12T00:41:37.275Z,1.25
2022-12-12T00:42:33.877Z,1.24
2022-12-12T00:43:30.518Z,1.16
2022-12-12T00:44:27.251Z,1.22
2022-12-12T00:45:23.888Z,1.23
2022-12-12T00:46:24.720Z,1.30
2022-12-12T00:47:21.456Z,1.60
2022-12-12T00:48:18.339Z,1.29
2022-12-12T00:49:14.977Z,1.22
2022-12-12T00:50:11.612Z,1.24
2022-12-12T00:51:10.612Z,1.08
2022-12-12T00:52:07.231Z,1.05
2022-12-12T00:53:03.949Z,0.89
2022-12-12T00:54:00.775Z,0.60
2022-12-12T00:54:57.890Z,0.37
2022-12-12T00:55:56.665Z,0.39
2022-12-12T00:56:53.218Z,0.53
2022-12-12T00:57:49.870Z,0.68
2022-12-12T00:58:46.935Z,0.60
2022-12-12T00:59:43.501Z,0.64
2022-12-12T01:00:42.716Z,0.48
2022-12-12T01:01:39.346Z,0.32
2022-12-12T01:02:36.036Z,0.31
2022-12-12T01:03:35.126Z,0.14
2022-12-12T01:04:31.723Z,0.40
2022-12-12T01:05:28.785Z,0.32
2022-12-12T01:06:26.407Z,0.20
2022-12-12T01:07:23.579Z,0.25
2022-12-12T01:08:20.200Z,0.24
2022-12-12T01:09:16.807Z,0.29
2022-12-12T01:10:13.583Z,0.41
2022-12-12T01:11:11.932Z,0.44
2022-12-12T01:12:08.749Z,0.44
2022-12-12T01:13:05.758Z,-0.01
2022-12-12T01:14:02.581Z,0.09
2022-12-12T01:14:59.188Z,-0.31
2022-12-12T01:15:56.200Z,-0.11
2022-12-12T01:16:52.874Z,-0.24
2022-12-12T01:17:49.432Z,0.19
2022-12-12T01:18:46.514Z,0.46
2022-12-12T01:19:43.079Z,0.79
2022-12-12T01:20:41.692Z,0.89
2022-12-12T01:21:38.274Z,0.75
2022-12-12T01:22:37.230Z,0.29
2022-12-12T01:23:33.801Z,0.79
2022-12-12T01:24:30.498Z,0.78
2022-12-12T01:25:27.084Z,0.31
2022-12-12T01:26:24.852Z,0.65
2022-12-12T01:27:21.421Z,0.70
2022-12-12T01:28:17.971Z,0.85
2022-12-12T01:29:14.573Z,0.75
2022-12-12T01:30:13.772Z,0.88
2022-12-12T01:31:11.848Z,0.30
2022-12-12T01:32:08.612Z,0.39
2022-12-12T01:33:05.201Z,0.25
2022-12-12T01:34:01.879Z,0.41
2022-12-12T01:34:58.531Z,0.29
2022-12-12T01:35:55.238Z,0.68
2022-12-12T01:36:52.632Z,0.86
2022-12-12T01:37:49.727Z,0.97
2022-12-12T01:38:48.012Z,1.07
2022-12-12T01:39:44.566Z,0.96
2022-12-12T01:40:41.184Z,0.80
2022-12-12T01:41:37.893Z,0.66
2022-12-12T01:42:34.914Z,0.90
2022-12-12T01:43:31.535Z,0.78
2022-12-12T01:44:47.688Z,0.94
2022-12-12T01:45:59.661Z,1.01
2022-12-12T01:46:56.278Z,1.06
2022-12-12T01:47:52.927Z,1.23
2022-12-12T01:48:54.804Z,1.24
2022-12-12T01:49:54.736Z,1.27
2022-12-12T01:50:51.852Z,1.39
2022-12-12T01:51:52.343Z,1.55
2022-12-12T01:52:49.823Z,1.55
2022-12-12T01:53:48.389Z,1.49
2022-12-12T01:54:49.447Z,1.66
2022-12-12T01:55:48.059Z,1.49
2022-12-12T01:56:47.038Z,1.51
2022-12-12T01:57:47.268Z,1.56
2022-12-12T01:58:47.457Z,1.41
2022-12-12T01:59:46.198Z,1.41
2022-12-12T02:00:43.144Z,1.45
2022-12-12T02:01:40.337Z,0.82
2022-12-12T02:02:39.404Z,1.41
2022-12-12T02:03:37.042Z,1.44
2022-12-12T02:04:34.007Z,0.88
2022-12-12T02:05:37.598Z,1.37
2022-12-12T02:06:34.367Z,1.49
2022-12-12T02:07:31.143Z,1.38
2022-12-12T02:08:28.414Z,1.56
2022-12-12T02:09:26.001Z,1.18
2022-12-12T02:10:22.673Z,1.10
2022-12-12T02:11:19.295Z,1.44
2022-12-12T02:12:15.948Z,1.26
2022-12-12T02:13:17.028Z,1.56
2022-12-12T02:14:34.616Z,1.51
2022-12-12T02:15:45.778Z,1.47
2022-12-12T02:16:51.487Z,1.20
2022-12-12T02:18:09.843Z,1.20
2022-12-12T02:19:33.746Z,1.50
2022-12-12T02:21:25.059Z,1.83
2022-12-12T02:22:41.507Z,1.61
2022-12-12T02:23:53.402Z,1.38
2022-12-12T02:25:11.950Z,1.30
2022-12-12T02:26:15.556Z,1.26
2022-12-12T02:27:27.394Z,1.21
2022-12-12T02:29:00.349Z,1.38
2022-12-12T02:29:59.586Z,1.14
2022-12-12T02:31:14.835Z,1.17
2022-12-12T02:32:25.331Z,1.29
2022-12-12T02:33:34.238Z,1.34
2022-12-12T02:34:45.205Z,1.50
2022-12-12T02:36:05.369Z,1.52
2022-12-12T02:37:12.858Z,1.47
2022-12-12T02:38:25.854Z,1.51
2022-12-12T02:39:54.614Z,1.49
2022-12-12T02:41:00.006Z,1.32
2022-12-12T02:42:10.570Z,1.02
2022-12-12T02:43:13.459Z,0.87
2022-12-12T02:44:38.460Z,0.74
2022-12-12T02:45:51.270Z,0.72
2022-12-12T02:47:06.333Z,0.61
2022-12-12T02:48:33.843Z,0.65
2022-12-12T02:49:41.089Z,0.55
2022-12-12T02:50:40.083Z,0.57
2022-12-12T02:51:38.414Z,0.64
2022-12-12T02:52:36.266Z,0.65
2022-12-12T02:53:33.110Z,0.32
2022-12-12T02:54:29.896Z,0.35
2022-12-12T02:55:26.914Z,0.45
2022-12-12T02:56:41.909Z,0.38
2022-12-12T02:57:41.675Z,0.28
2022-12-12T02:58:38.738Z,0.28
2022-12-12T02:59:41.894Z,0.21
2022-12-12T03:00:56.536Z,0.11
2022-12-12T03:02:22.577Z,0.06
2022-12-12T03:03:53.882Z,-0.02
2022-12-12T03:05:32.749Z,0.04
2022-12-12T03:07:15.633Z,0.00
2022-12-12T03:08:42.186Z,0.49
2022-12-12T03:10:04.606Z,0.83
2022-12-12T03:11:11.029Z,0.46
2022-12-12T03:12:17.394Z,0.48
2022-12-12T03:13:35.621Z,0.50
2022-12-12T03:14:44.123Z,0.45
2022-12-12T03:16:12.319Z,0.31
2022-12-12T03:17:18.154Z,0.20
2022-12-12T03:18:26.854Z,-0.31
2022-12-12T03:19:28.659Z,-0.18
2022-12-12T03:20:43.187Z,-0.25
2022-12-12T03:21:59.599Z,-0.03
2022-12-12T03:23:02.797Z,-0.15
2022-12-12T03:24:05.700Z,-0.32
2022-12-12T03:25:24.556Z,-0.40
2022-12-12T03:26:32.019Z,-0.44
2022-12-12T03:27:48.351Z,-0.50
2022-12-12T03:29:08.125Z,-0.49
2022-12-12T03:30:11.884Z,-0.54
2022-12-12T03:31:12.057Z,-0.51
2022-12-12T03:32:16.563Z,-0.45
2022-12-12T03:33:32.693Z,-0.47
2022-12-12T03:34:38.770Z,-0.55
2022-12-12T03:35:41.795Z,-0.42
2022-12-12T03:36:49.023Z,-0.26
2022-12-12T03:37:58.756Z,-0.17
2022-12-12T03:39:06.145Z,0.16
2022-12-12T03:40:14.157Z,0.09
2022-12-12T03:41:22.180Z,0.13
2022-12-12T03:42:18.707Z,-0.06
2022-12-12T03:43:20.199Z,-0.10
2022-12-12T03:44:29.338Z,-0.48
2022-12-12T03:45:35.255Z,-0.45
2022-12-12T03:46:39.619Z,-0.15
2022-12-12T03:47:43.727Z,-0.19
2022-12-12T03:48:49.351Z,-0.22
2022-12-12T03:49:58.381Z,-0.16
2022-12-12T03:51:00.680Z,-0.01
2022-12-12T03:52:11.785Z,-0.02
2022-12-12T03:53:22.142Z,0.09
2022-12-12T03:54:25.896Z,0.10
2022-12-12T03:55:45.360Z,0.04
2022-12-12T03:56:51.061Z,0.15
2022-12-12T03:57:56.875Z,-0.19
2022-12-12T03:59:01.657Z,0.27
2022-12-12T04:00:05.900Z,0.15
2022-12-12T04:01:07.954Z,0.27
2022-12-12T04:02:16.828Z,0.36
2022-12-12T04:03:25.163Z,0.27
2022-12-12T04:04:29.436Z,0.22
2022-12-12T04:05:30.851Z,0.25
2022-12-12T04:06:39.035Z,0.35
2022-12-12T04:07:43.995Z,0.33
2022-12-12T04:09:00.680Z,0.57
2022-12-12T04:10:15.910Z,0.63
2022-12-12T04:11:39.152Z,0.64
2022-12-12T04:13:03.536Z,0.59
2022-12-12T04:14:32.861Z,0.63
2022-12-12T04:15:53.162Z,0.52
2022-12-12T04:17:00.660Z,0.45
2022-12-12T04:18:33.502Z,0.32
2022-12-12T04:20:18.277Z,0.55
2022-12-12T04:21:58.996Z,0.68
2022-12-12T04:23:16.448Z,0.57
2022-12-12T04:24:20.262Z,0.51
2022-12-12T04:26:04.920Z,0.63
2022-12-12T04:27:07.246Z,0.76
2022-12-12T04:28:07.558Z,0.40
2022-12-12T04:29:19.426Z,0.65
2022-12-12T04:30:16.845Z,0.66
2022-12-12T04:31:14.009Z,0.63
2022-12-12T04:32:42.546Z,0.68
2022-12-12T04:33:48.704Z,0.69
2022-12-12T04:35:00.138Z,0.73
2022-12-12T04:36:00.195Z,0.70
2022-12-12T04:36:56.925Z,0.59
2022-12-12T04:38:00.764Z,0.57
2022-12-12T04:39:00.156Z,0.49
2022-12-12T04:40:00.024Z,0.36
2022-12-12T04:40:59.481Z,0.52
2022-12-12T04:41:57.548Z,0.28
2022-12-12T04:42:59.360Z,0.29
2022-12-12T04:43:56.981Z,0.35
2022-12-12T04:44:59.297Z,0.39
2022-12-12T04:46:09.752Z,0.39
2022-12-12T04:47:09.095Z,0.60
2022-12-12T04:48:09.417Z,0.40
2022-12-12T04:49:15.730Z,0.13
2022-12-12T04:50:14.047Z,0.43
2022-12-12T04:51:13.814Z,0.24
2022-12-12T04:52:13.882Z,0.38
2022-12-12T04:53:18.528Z,0.56
2022-12-12T04:54:49.075Z,0.52
2022-12-12T04:55:54.855Z,0.64
2022-12-12T04:56:58.582Z,0.54
2022-12-12T04:57:55.767Z,0.43
2022-12-12T04:58:52.423Z,0.41
2022-12-12T04:59:49.653Z,0.58
2022-12-12T05:00:51.917Z,0.55
2022-12-12T05:01:57.401Z,0.45
2022-12-12T05:03:19.924Z,0.22
2022-12-12T05:04:25.128Z,0.06
2022-12-12T05:05:28.204Z,0.08
2022-12-12T05:06:32.963Z,-0.14
2022-12-12T05:07:37.859Z,-0.13
2022-12-12T05:08:42.822Z,0.07
2022-12-12T05:09:39.996Z,0.16
2022-12-12T05:10:43.839Z,0.10
2022-12-12T05:11:42.123Z,0.05
2022-12-12T05:12:50.037Z,-0.22
2022-12-12T05:13:46.631Z,0.06
2022-12-12T05:14:43.446Z,-0.05
2022-12-12T05:15:44.799Z,0.14
2022-12-12T05:16:47.492Z,0.17
2022-12-12T05:17:48.714Z,0.20
2022-12-12T05:18:45.755Z,0.29
2022-12-12T05:19:42.323Z,0.00
2022-12-12T05:20:39.082Z,-0.18
2022-12-12T05:21:35.710Z,-0.23
2022-12-12T05:22:32.403Z,-0.06
2022-12-12T05:23:34.369Z,-0.03
2022-12-12T05:24:32.029Z,-0.27
2022-12-12T05:25:28.661Z,0.17
2022-12-12T05:26:28.326Z,0.25
2022-12-12T05:27:24.930Z,0.16
2022-12-12T05:28:21.558Z,0.40
2022-12-12T05:29:18.177Z,-0.09
2022-12-12T05:30:14.981Z,0.19
2022-12-12T05:31:11.650Z,0.05
2022-12-12T05:32:08.243Z,0.32
2022-12-12T05:33:04.849Z,-0.29
2022-12-12T05:34:01.478Z,0.36
2022-12-12T05:34:58.045Z,0.54
2022-12-12T05:35:54.615Z,0.47
2022-12-12T05:36:51.282Z,0.53
2022-12-12T05:37:51.637Z,0.53
2022-12-12T05:38:48.705Z,0.58
2022-12-12T05:39:45.298Z,0.64
2022-12-12T05:40:41.932Z,0.53
2022-12-12T05:41:38.493Z,0.41
2022-12-12T05:42:35.255Z,0.52
2022-12-12T05:43:32.187Z,0.57
2022-12-12T05:44:28.804Z,0.43
2022-12-12T05:45:25.498Z,0.50
2022-12-12T05:46:22.133Z,0.45
2022-12-12T05:47:21.353Z,0.44
2022-12-12T05:48:23.963Z,0.59
2022-12-12T05:49:21.064Z,0.65
2022-12-12T05:50:17.810Z,0.68
2022-12-12T05:51:14.403Z,0.62
2022-12-12T05:52:11.088Z,0.64
2022-12-12T05:53:07.741Z,0.61
2022-12-12T05:54:04.468Z,0.64
2022-12-12T05:55:01.098Z,0.45
2022-12-12T05:55:57.820Z,0.43
2022-12-12T05:56:54.510Z,0.37
2022-12-12T05:57:51.059Z,0.19
2022-12-12T05:58:47.659Z,0.48
2022-12-12T05:59:44.631Z,0.49
2022-12-12T06:00:41.248Z,0.52
2022-12-12T06:01:37.851Z,0.71
2022-12-12T06:02:34.606Z,0.70
2022-12-12T06:03:32.481Z,0.83
2022-12-12T06:04:29.197Z,0.68
2022-12-12T06:05:25.936Z,0.71
2022-12-12T06:06:22.832Z,0.75
2022-12-12T06:07:19.476Z,0.71
2022-12-12T06:08:18.803Z,0.70
2022-12-12T06:09:17.974Z,0.51
2022-12-12T06:10:14.763Z,0.31
2022-12-12T06:11:12.691Z,0.47
2022-12-12T06:12:09.413Z,0.57
2022-12-12T06:13:05.980Z,0.55
2022-12-12T06:14:02.571Z,0.66
2022-12-12T06:14:59.154Z,0.74
2022-12-12T06:15:55.761Z,0.78
2022-12-12T06:16:52.874Z,0.71
2022-12-12T06:17:51.488Z,0.54
2022-12-12T06:18:55.597Z,0.64
2022-12-12T06:19:52.886Z,0.80
2022-12-12T06:20:49.491Z,0.90
2022-12-12T06:21:46.108Z,0.85
2022-12-12T06:22:42.700Z,1.07
2022-12-12T06:23:41.002Z,1.04
2022-12-12T06:24:37.630Z,0.66
2022-12-12T06:25:34.355Z,0.74
2022-12-12T06:26:31.075Z,0.81
2022-12-12T06:27:28.016Z,1.00
2022-12-12T06:28:24.628Z,0.44
2022-12-12T06:29:21.193Z,0.84
2022-12-12T06:30:17.861Z,0.75
2022-12-12T06:31:15.778Z,0.48
2022-12-12T06:32:12.398Z,0.66
2022-12-12T06:33:08.970Z,0.55
2022-12-12T06:34:05.538Z,0.72
2022-12-12T06:35:02.162Z,0.44
2022-12-12T06:36:26.836Z,0.40
2022-12-12T06:37:23.589Z,0.45
2022-12-12T06:38:20.644Z,0.47
2022-12-12T06:39:18.049Z,0.66
2022-12-12T06:40:15.678Z,0.69
2022-12-12T06:41:15.006Z,0.65
2022-12-12T06:42:11.571Z,0.54
2022-12-12T06:43:08.110Z,0.78
2022-12-12T06:44:04.929Z,0.88
2022-12-12T06:45:01.579Z,0.90
2022-12-12T06:46:03.647Z,0.93
2022-12-12T06:47:00.566Z,0.98
2022-12-12T06:47:57.167Z,0.97
2022-12-12T06:48:55.257Z,1.03
2022-12-12T06:49:51.901Z,0.97
2022-12-12T06:50:48.527Z,0.93
2022-12-12T06:51:45.286Z,0.97
2022-12-12T06:52:41.910Z,0.92
2022-12-12T06:53:38.598Z,0.93
2022-12-12T07:50:36.274Z,1.99
2022-12-12T07:51:32.910Z,1.76
2022-12-12T07:52:29.579Z,1.82
2022-12-12T07:53:26.194Z,1.79
2022-12-12T07:54:22.744Z,1.89
2022-12-12T07:55:19.344Z,1.96
2022-12-12T07:56:17.726Z,1.90
2022-12-12T07:57:14.343Z,1.28
2022-12-12T07:58:11.015Z,1.93
2022-12-12T07:59:07.857Z,1.99
2022-12-12T08:00:15.833Z,2.15
2022-12-12T08:01:18.633Z,2.18
2022-12-12T08:02:15.318Z,2.36
2022-12-12T08:03:12.007Z,2.30
2022-12-12T08:04:08.662Z,2.37
2022-12-12T08:07:16.122Z,2.35
2022-12-12T08:08:12.782Z,2.47
2022-12-12T08:09:09.409Z,2.52
2022-12-12T08:10:06.215Z,2.36
2022-12-12T08:11:11.427Z,2.52
2022-12-12T08:12:08.219Z,2.59
2022-12-12T08:13:05.022Z,2.41
2022-12-12T08:14:01.647Z,2.36
2022-12-12T08:14:58.377Z,2.32
2022-12-12T08:15:55.162Z,2.17
2022-12-12T08:16:52.617Z,2.26
2022-12-12T08:17:49.281Z,2.32
2022-12-12T08:18:46.164Z,1.95
2022-12-12T08:19:42.815Z,2.18
2022-12-12T08:20:41.892Z,2.03
2022-12-12T08:21:38.431Z,2.25
2022-12-12T08:22:35.150Z,2.49
2022-12-12T08:23:31.739Z,2.41
2022-12-12T08:24:31.238Z,2.27
2022-12-12T08:25:27.923Z,2.26
2022-12-12T08:26:26.150Z,2.29
2022-12-12T08:27:22.750Z,2.69
2022-12-12T08:28:19.368Z,2.71
2022-12-12T08:29:16.051Z,2.43
2022-12-12T08:30:12.927Z,2.66
2022-12-12T08:31:09.646Z,2.67
2022-12-12T08:32:06.332Z,2.72
2022-12-12T08:33:07.957Z,3.18
2022-12-12T08:34:05.646Z,2.99
2022-12-12T08:35:02.379Z,3.15
2022-12-12T08:35:58.958Z,3.07
2022-12-12T08:36:55.536Z,3.05
2022-12-12T08:37:52.202Z,3.09
2022-12-12T08:38:49.792Z,2.86
2022-12-12T08:39:48.405Z,2.60
2022-12-12T08:40:48.131Z,2.62
2022-12-12T08:41:50.190Z,2.66
2022-12-12T08:42:46.785Z,2.69
2022-12-12T08:43:44.200Z,2.66
2022-12-12T08:44:41.110Z,2.77
2022-12-12T08:45:38.894Z,2.97
2022-12-12T08:46:38.374Z,2.92
2022-12-12T08:47:35.083Z,2.89
2022-12-12T08:48:31.832Z,2.96
2022-12-12T08:49:28.375Z,3.01
2022-12-12T08:50:24.992Z,2.92
2022-12-12T08:51:22.046Z,2.79
2022-12-12T08:52:18.818Z,2.78
2022-12-12T08:53:15.442Z,2.80
2022-12-12T08:54:12.990Z,2.71
2022-12-12T08:55:09.657Z,2.42
2022-12-12T08:56:06.769Z,2.58
2022-12-12T08:57:03.471Z,2.68
2022-12-12T08:58:00.102Z,2.59
2022-12-12T08:58:56.679Z,2.68
2022-12-12T08:59:53.202Z,2.84
2022-12-12T09:00:49.976Z,3.01
2022-12-12T09:01:46.652Z,3.22
2022-12-12T09:02:44.223Z,3.00
2022-12-12T09:03:40.920Z,2.62
2022-12-12T09:04:38.095Z,2.97
2022-12-12T09:05:35.637Z,3.12
2022-12-12T09:06:32.301Z,2.77
2022-12-12T09:07:28.937Z,2.96
2022-12-12T09:08:25.657Z,2.87
2022-12-12T09:09:22.344Z,3.09
2022-12-12T09:10:18.934Z,3.21
2022-12-12T09:11:16.271Z,3.18
2022-12-12T09:12:12.925Z,3.17
2022-12-12T09:13:11.405Z,2.87
2022-12-12T09:14:07.988Z,3.43
2022-12-12T09:15:05.090Z,3.13
2022-12-12T09:16:01.956Z,3.41
2022-12-12T09:16:58.576Z,3.47
2022-12-12T09:17:55.268Z,3.52
2022-12-12T09:18:52.141Z,3.60
2022-12-12T09:19:48.710Z,3.52
2022-12-12T09:20:56.091Z,3.39
2022-12-12T09:21:52.673Z,3.54
2022-12-12T09:22:49.343Z,3.56
2022-12-12T09:23:46.254Z,3.63
2022-12-12T09:24:42.968Z,3.75
2022-12-12T09:25:42.600Z,3.57
2022-12-12T09:26:39.384Z,3.33
2022-12-12T09:27:36.439Z,3.23
2022-12-12T09:28:33.314Z,3.06
2022-12-12T09:29:30.077Z,2.92
2022-12-12T09:30:26.726Z,3.11
2022-12-12T09:31:23.501Z,3.04
2022-12-12T09:32:24.577Z,3.12
2022-12-12T09:33:21.598Z,2.98
2022-12-12T09:34:18.208Z,2.95
2022-12-12T09:35:15.231Z,2.80
2022-12-12T09:36:13.824Z,2.68
2022-12-12T09:37:10.558Z,3.01
2022-12-12T09:38:14.006Z,2.83
2022-12-12T09:39:11.343Z,3.15
2022-12-12T09:40:09.426Z,3.10
2022-12-12T09:41:09.053Z,2.97
2022-12-12T09:42:11.323Z,3.08
2022-12-12T09:43:15.829Z,2.95
2022-12-12T09:44:18.682Z,2.82
2022-12-12T09:45:16.001Z,3.00
2022-12-12T09:47:00.507Z,2.92
2022-12-12T09:48:00.813Z,2.79
2022-12-12T09:49:07.500Z,2.84
2022-12-12T09:50:14.655Z,2.60
2022-12-12T09:51:13.052Z,2.62
2022-12-12T09:52:15.744Z,2.17
2022-12-12T09:53:16.330Z,2.22
2022-12-12T09:54:16.690Z,2.49
2022-12-12T09:55:20.460Z,2.23
2022-12-12T09:56:35.191Z,2.25
2022-12-12T09:57:44.623Z,2.58
2022-12-12T09:58:53.866Z,2.58
2022-12-12T10:00:05.594Z,3.00
2022-12-12T10:01:08.006Z,2.89
2022-12-12T10:02:23.228Z,3.09
2022-12-12T10:03:37.830Z,3.16
2022-12-12T10:04:53.830Z,3.18
2022-12-12T10:06:28.589Z,2.94
2022-12-12T10:07:43.546Z,3.23
2022-12-12T10:08:42.943Z,3.36
2022-12-12T10:10:01.033Z,3.49
2022-12-12T10:11:27.346Z,3.45
2022-12-12T10:12:25.894Z,3.39
2022-12-12T10:13:26.849Z,3.25
2022-12-12T10:14:38.788Z,3.38
2022-12-12T10:15:39.340Z,3.47
2022-12-12T10:16:38.606Z,3.41
2022-12-12T10:17:43.331Z,3.59
2022-12-12T10:18:43.458Z,3.67
2022-12-12T10:19:49.850Z,3.63
2022-12-12T10:20:52.177Z,3.47
2022-12-12T10:21:51.764Z,3.37
2022-12-12T10:23:17.421Z,3.42
2022-12-12T10:24:33.737Z,3.56
2022-12-12T10:25:49.020Z,3.56
2022-12-12T10:26:45.636Z,3.27
2022-12-12T10:27:42.257Z,3.45
2022-12-12T10:28:39.142Z,3.05
2022-12-12T10:29:41.200Z,3.44
2022-12-12T10:31:08.045Z,3.16
2022-12-12T10:32:27.682Z,3.58
2022-12-12T10:33:51.335Z,3.90
2022-12-12T10:35:16.937Z,4.09
2022-12-12T10:36:34.379Z,4.02
2022-12-12T10:37:54.220Z,4.02
2022-12-12T10:39:21.551Z,4.07
2022-12-12T10:40:37.665Z,4.07
2022-12-12T10:41:48.872Z,4.01
2022-12-12T10:43:02.505Z,3.90
2022-12-12T10:44:20.001Z,3.86
2022-12-12T10:45:40.820Z,3.82
2022-12-12T10:46:50.029Z,3.43
2022-12-12T10:47:47.022Z,4.04
2022-12-12T10:48:45.707Z,4.14
2022-12-12T10:49:42.576Z,3.76
2022-12-12T10:50:44.616Z,3.61
2022-12-12T10:51:43.550Z,4.25
2022-12-12T10:52:40.403Z,4.13
2022-12-12T10:53:37.203Z,4.45
2022-12-12T10:54:44.230Z,4.90
2022-12-12T10:56:00.578Z,4.64
2022-12-12T10:57:18.011Z,4.97
2022-12-12T10:58:19.506Z,4.86
2022-12-12T10:59:22.209Z,5.19
2022-12-12T11:00:29.434Z,5.28
2022-12-12T11:02:08.561Z,5.27
2022-12-12T11:02:56.850Z,5.04
2022-12-12T11:03:59.112Z,4.91
2022-12-12T11:05:07.152Z,4.76
2022-12-12T11:06:08.014Z,4.52
2022-12-12T11:07:04.842Z,4.41
2022-12-12T11:08:07.476Z,4.46
2022-12-12T11:09:15.707Z,4.54
2022-12-12T11:10:26.865Z,4.50
2022-12-12T11:11:28.586Z,4.68
2022-12-12T11:12:35.103Z,4.14
2022-12-12T11:13:39.459Z,4.27
2022-12-12T11:14:37.694Z,4.28
2022-12-12T11:15:46.236Z,4.22
2022-12-12T11:16:44.720Z,4.31
2022-12-12T11:17:41.761Z,4.30
2022-12-12T11:18:38.370Z,4.17
2022-12-12T11:19:39.215Z,4.12
2022-12-12T11:20:44.361Z,4.03
2022-12-12T11:21:41.346Z,4.23
2022-12-12T11:22:39.712Z,4.22
2022-12-12T11:23:40.759Z,4.08
2022-12-12T11:24:43.315Z,4.17
2022-12-12T11:25:39.897Z,4.06
2022-12-12T11:26:49.246Z,4.31
2022-12-12T11:27:46.326Z,4.50
2022-12-12T11:28:45.625Z,4.51
2022-12-12T11:29:47.964Z,4.71
2022-12-12T11:30:44.857Z,4.61
2022-12-12T11:31:43.914Z,4.20
2022-12-12T11:32:47.486Z,4.34
2022-12-12T11:33:52.778Z,4.40
2022-12-12T11:34:58.257Z,4.04
2022-12-12T11:35:56.191Z,3.94
2022-12-12T11:36:53.699Z,4.00
2022-12-12T11:37:56.102Z,3.94
2022-12-12T11:38:56.114Z,4.29
2022-12-12T11:39:54.256Z,4.52
2022-12-12T11:41:03.795Z,4.44
2022-12-12T11:42:16.452Z,4.64
2022-12-12T11:43:29.443Z,4.09
2022-12-12T11:44:30.097Z,4.39
2022-12-12T11:45:26.790Z,4.28
2022-12-12T11:46:33.733Z,4.37
2022-12-12T11:47:38.757Z,4.47
2022-12-12T11:48:41.144Z,4.21
2022-12-12T11:49:45.891Z,4.00
2022-12-12T11:50:46.471Z,3.70
2022-12-12T11:51:44.463Z,3.74
2022-12-12T11:52:41.067Z,3.56
2022-12-12T11:53:45.128Z,3.69
2022-12-12T11:54:41.732Z,3.70
2022-12-12T11:56:04.822Z,3.71
2022-12-12T11:57:06.691Z,3.99
2022-12-12T11:58:26.581Z,3.86
2022-12-12T11:59:35.115Z,3.43
2022-12-12T12:00:42.431Z,3.68
2022-12-12T12:02:11.283Z,3.90
2022-12-12T12:03:35.624Z,3.86
2022-12-12T12:05:11.843Z,3.93
2022-12-12T12:06:34.586Z,4.11
2022-12-12T12:08:03.339Z,3.90
2022-12-12T12:09:22.425Z,4.33
2022-12-12T12:10:36.254Z,4.14
2022-12-12T12:11:59.115Z,3.95
2022-12-12T12:13:13.879Z,4.04
2022-12-12T12:14:42.777Z,3.99
2022-12-12T12:16:07.616Z,4.06
2022-12-12T12:17:07.052Z,3.94
2022-12-12T12:18:19.805Z,3.95
2022-12-12T12:19:26.039Z,4.14
2022-12-12T12:20:49.806Z,4.26
2022-12-12T12:22:23.686Z,4.32
2022-12-12T12:23:42.470Z,4.32
2022-12-12T12:24:40.786Z,4.22
2022-12-12T12:25:51.861Z,4.06
2022-12-12T12:27:25.273Z,4.46
2022-12-12T12:28:34.524Z,4.37
2022-12-12T12:29:52.046Z,4.46
2022-12-12T12:31:06.371Z,4.42
2022-12-12T12:32:12.666Z,4.44
2022-12-12T12:33:30.939Z,4.27
2022-12-12T12:34:33.719Z,4.41
2022-12-12T12:35:50.316Z,4.33
2022-12-12T12:37:14.120Z,4.49
2022-12-12T12:38:16.893Z,4.52
2022-12-12T12:39:34.922Z,4.23
2022-12-12T12:40:48.648Z,3.92
2022-12-12T12:41:45.273Z,4.23
2022-12-12T12:43:14.010Z,4.48
2022-12-12T12:44:30.521Z,4.62
2022-12-12T12:45:45.752Z,4.51
2022-12-12T12:47:00.985Z,4.49
2022-12-12T12:48:19.466Z,4.48
2022-12-12T12:49:23.649Z,4.59
2022-12-12T12:50:28.305Z,4.24
2022-12-12T12:51:31.762Z,4.41
2022-12-12T12:52:36.604Z,4.54
2022-12-12T12:53:42.743Z,3.65
2022-12-12T12:54:41.245Z,4.45
2022-12-12T12:55:47.747Z,4.42
2022-12-12T12:56:50.626Z,4.22
2022-12-12T12:57:50.346Z,4.07
2022-12-12T12:58:49.590Z,4.17
2022-12-12T12:59:53.719Z,4.03
2022-12-12T13:00:59.977Z,4.12
2022-12-12T13:02:01.617Z,4.30
2022-12-12T13:03:07.491Z,4.20
2022-12-12T13:04:22.678Z,4.33
2022-12-12T13:05:22.603Z,4.24
2022-12-12T13:06:25.754Z,4.18
2022-12-12T13:07:28.938Z,4.17
2022-12-12T13:08:39.973Z,4.25
2022-12-12T13:09:59.768Z,4.22
2022-12-12T13:11:07.813Z,4.17
2022-12-12T13:12:33.420Z,4.24
2022-12-12T13:13:32.815Z,3.86
2022-12-12T13:14:49.465Z,4.03
2022-12-12T13:15:51.679Z,4.17
2022-12-12T13:16:50.985Z,4.11
2022-12-12T13:18:01.617Z,4.23
2022-12-12T13:19:24.188Z,4.35
2022-12-12T13:20:25.868Z,4.66
2022-12-12T13:21:35.547Z,4.71
2022-12-12T13:22:53.696Z,4.65
2022-12-12T13:24:03.181Z,4.46
2022-12-12T13:25:19.012Z,4.48
2022-12-12T13:26:21.590Z,4.31
2022-12-12T13:27:26.387Z,4.21
2022-12-12T13:28:42.494Z,4.25
2022-12-12T13:29:47.584Z,4.15
2022-12-12T13:30:53.157Z,3.83
2022-12-12T13:32:02.995Z,4.46
2022-12-12T13:33:14.322Z,4.74
2022-12-12T13:34:16.967Z,4.56
2022-12-12T13:35:18.127Z,4.68
2022-12-12T13:36:30.282Z,4.36
2022-12-12T13:37:29.105Z,4.25
2022-12-12T13:38:30.223Z,4.24
2022-12-12T13:39:30.515Z,4.11
2022-12-12T13:40:32.439Z,4.38
2022-12-12T13:42:03.016Z,4.33
2022-12-12T13:43:10.211Z,4.39
2022-12-12T13:44:33.165Z,4.41
2022-12-12T13:45:32.543Z,4.20
2022-12-12T13:46:37.972Z,4.15
2022-12-12T13:47:34.626Z,4.18
2022-12-12T13:48:46.447Z,4.05
2022-12-12T13:50:22.628Z,4.22
2022-12-12T13:51:28.071Z,4.05
2022-12-12T13:52:28.897Z,4.21
2022-12-12T13:53:25.490Z,4.16
2022-12-12T13:54:22.388Z,4.18
2022-12-12T13:55:22.682Z,4.17
2022-12-12T13:56:32.264Z,4.15
2022-12-12T13:57:31.527Z,4.03
2022-12-12T13:58:35.006Z,3.96
2022-12-12T13:59:31.928Z,3.95
2022-12-12T14:00:32.400Z,3.89
2022-12-12T14:01:29.006Z,4.04
2022-12-12T14:02:30.972Z,3.99
2022-12-12T14:03:30.887Z,4.00
2022-12-12T14:04:36.537Z,3.49
2022-12-12T14:05:48.813Z,4.02
2022-12-12T14:06:45.524Z,3.83
2022-12-12T14:08:01.659Z,3.90
2022-12-12T14:08:58.950Z,3.93
2022-12-12T14:09:57.518Z,3.84
2022-12-12T14:11:08.291Z,3.59
2022-12-12T14:12:31.368Z,3.43
2022-12-12T14:13:36.403Z,3.72
2022-12-12T14:14:36.586Z,3.18
2022-12-12T14:15:33.694Z,3.57
2022-12-12T14:16:30.850Z,3.68
2022-12-12T14:17:30.401Z,3.59
2022-12-12T14:18:30.570Z,3.79
2022-12-12T14:19:35.662Z,3.75
2022-12-12T14:20:43.784Z,3.69
2022-12-12T14:21:45.309Z,3.66
2022-12-12T14:22:44.891Z,3.82
2022-12-12T14:23:50.298Z,3.66
2022-12-12T14:25:19.118Z,3.96
2022-12-12T14:26:27.810Z,3.77
2022-12-12T14:27:45.934Z,3.61
2022-12-12T14:28:42.553Z,3.49
2022-12-12T14:29:41.962Z,3.61
2022-12-12T14:30:58.804Z,3.86
2022-12-12T14:32:04.658Z,3.84
2022-12-12T14:33:26.604Z,3.87
2022-12-12T14:34:38.327Z,3.94
2022-12-12T14:35:44.476Z,3.79
2022-12-12T14:36:49.667Z,3.84
2022-12-12T14:38:11.856Z,3.83
2022-12-12T14:39:33.348Z,3.74
2022-12-12T14:40:33.509Z,3.56
2022-12-12T14:41:35.997Z,3.71
2022-12-12T14:43:15.235Z,3.74
2022-12-12T14:44:38.182Z,3.56
2022-12-12T14:45:49.840Z,3.60
2022-12-12T14:46:47.070Z,3.67
2022-12-12T14:47:43.720Z,3.56
2022-12-12T14:48:40.348Z,3.84
2022-12-12T14:49:37.363Z,3.82
2022-12-12T14:50:34.363Z,3.75
2022-12-12T14:51:35.022Z,3.69
2022-12-12T14:52:31.710Z,3.67
2022-12-12T14:53:39.277Z,3.44
2022-12-12T14:54:36.778Z,3.46
2022-12-12T14:55:33.531Z,3.39
2022-12-12T14:56:39.164Z,3.41
2022-12-12T14:57:35.983Z,3.25
2022-12-12T14:58:35.908Z,3.06
2022-12-12T14:59:42.411Z,3.01
2022-12-12T15:00:47.915Z,3.53
2022-12-12T15:01:48.233Z,3.58
2022-12-12T15:02:50.614Z,3.45